sensor_id;sensor_type;location;lat;lon;timestamp;P1;durP1;ratioP1;P2;durP2;ratioP2
73776;SDS011;62088;50.240;2.696;2023-07-31T00:01:06;13.02;;;5.53;;
73776;SDS011;62088;50.240;2.696;2023-07-31T00:03:33;12.32;;;5.60;;
73776;SDS011;62088;50.240;2.696;2023-07-31T00:06:01;13.30;;;5.63;;
73776;SDS011;62088;50.240;2.696;2023-07-31T00:08:28;12.73;;;5.35;;
73776;SDS011;62088;50.240;2.696;2023-07-31T00:10:55;11.43;;;5.30;;
73776;SDS011;62088;50.240;2.696;2023-07-31T00:13:23;11.75;;;4.75;;
73776;SDS011;62088;50.240;2.696;2023-07-31T00:15:50;14.00;;;4.93;;
73776;SDS011;62088;50.240;2.696;2023-07-31T00:18:18;11.43;;;4.15;;
73776;SDS011;62088;50.240;2.696;2023-07-31T00:20:45;10.90;;;4.78;;
73776;SDS011;62088;50.240;2.696;2023-07-31T00:23:13;11.52;;;4.30;;
73776;SDS011;62088;50.240;2.696;2023-07-31T00:25:40;11.27;;;4.50;;
73776;SDS011;62088;50.240;2.696;2023-07-31T00:28:08;14.23;;;5.45;;
73776;SDS011;62088;50.240;2.696;2023-07-31T00:30:37;11.55;;;4.32;;
73776;SDS011;62088;50.240;2.696;2023-07-31T00:33:05;12.77;;;4.78;;
73776;SDS011;62088;50.240;2.696;2023-07-31T00:35:32;10.02;;;4.38;;
73776;SDS011;62088;50.240;2.696;2023-07-31T00:37:59;10.35;;;4.32;;
73776;SDS011;62088;50.240;2.696;2023-07-31T00:40:27;13.63;;;4.53;;
73776;SDS011;62088;50.240;2.696;2023-07-31T00:42:54;8.85;;;4.45;;
73776;SDS011;62088;50.240;2.696;2023-07-31T00:45:21;10.70;;;4.43;;
73776;SDS011;62088;50.240;2.696;2023-07-31T00:47:51;10.30;;;4.72;;
73776;SDS011;62088;50.240;2.696;2023-07-31T00:50:19;12.77;;;4.70;;
73776;SDS011;62088;50.240;2.696;2023-07-31T00:52:46;9.85;;;4.10;;
73776;SDS011;62088;50.240;2.696;2023-07-31T00:55:13;11.68;;;4.22;;
73776;SDS011;62088;50.240;2.696;2023-07-31T00:57:41;12.45;;;4.50;;
73776;SDS011;62088;50.240;2.696;2023-07-31T01:00:10;13.63;;;4.30;;
73776;SDS011;62088;50.240;2.696;2023-07-31T01:02:38;11.15;;;4.50;;
73776;SDS011;62088;50.240;2.696;2023-07-31T01:05:06;10.63;;;4.93;;
73776;SDS011;62088;50.240;2.696;2023-07-31T01:07:54;8.23;;;4.30;;
73776;SDS011;62088;50.240;2.696;2023-07-31T01:10:33;11.38;;;4.20;;
73776;SDS011;62088;50.240;2.696;2023-07-31T01:13:07;11.80;;;4.95;;
73776;SDS011;62088;50.240;2.696;2023-07-31T01:15:36;10.93;;;3.97;;
73776;SDS011;62088;50.240;2.696;2023-07-31T01:18:04;11.18;;;4.40;;
73776;SDS011;62088;50.240;2.696;2023-07-31T01:20:31;12.68;;;4.32;;
73776;SDS011;62088;50.240;2.696;2023-07-31T01:34:13;12.60;;;4.20;;
73776;SDS011;62088;50.240;2.696;2023-07-31T01:36:42;15.10;;;4.65;;
73776;SDS011;62088;50.240;2.696;2023-07-31T01:41:52;11.70;;;4.50;;
73776;SDS011;62088;50.240;2.696;2023-07-31T01:44:20;11.68;;;4.43;;
73776;SDS011;62088;50.240;2.696;2023-07-31T01:52:37;9.55;;;4.10;;
73776;SDS011;62088;50.240;2.696;2023-07-31T01:55:04;10.98;;;4.55;;
73776;SDS011;62088;50.240;2.696;2023-07-31T02:00:42;10.88;;;4.22;;
73776;SDS011;62088;50.240;2.696;2023-07-31T02:11:48;17.48;;;4.80;;
73776;SDS011;62088;50.240;2.696;2023-07-31T02:14:15;8.98;;;4.18;;
73776;SDS011;62088;50.240;2.696;2023-07-31T02:16:42;10.48;;;4.13;;
73776;SDS011;62088;50.240;2.696;2023-07-31T02:19:10;10.27;;;4.25;;
73776;SDS011;62088;50.240;2.696;2023-07-31T02:24:33;13.40;;;4.60;;
73776;SDS011;62088;50.240;2.696;2023-07-31T02:27:00;10.60;;;4.63;;
73776;SDS011;62088;50.240;2.696;2023-07-31T02:29:27;11.32;;;4.78;;
73776;SDS011;62088;50.240;2.696;2023-07-31T02:34:51;9.70;;;4.25;;
73776;SDS011;62088;50.240;2.696;2023-07-31T02:37:18;19.90;;;4.45;;
73776;SDS011;62088;50.240;2.696;2023-07-31T02:39:45;11.75;;;4.53;;
73776;SDS011;62088;50.240;2.696;2023-07-31T02:42:13;12.65;;;4.20;;
73776;SDS011;62088;50.240;2.696;2023-07-31T02:44:41;11.43;;;4.45;;
73776;SDS011;62088;50.240;2.696;2023-07-31T02:47:08;10.63;;;4.43;;
73776;SDS011;62088;50.240;2.696;2023-07-31T02:49:35;12.48;;;4.47;;
73776;SDS011;62088;50.240;2.696;2023-07-31T02:52:03;11.13;;;4.05;;
73776;SDS011;62088;50.240;2.696;2023-07-31T02:57:24;7.20;;;3.50;;
73776;SDS011;62088;50.240;2.696;2023-07-31T02:59:52;13.05;;;3.78;;
73776;SDS011;62088;50.240;2.696;2023-07-31T03:02:19;10.40;;;4.07;;
73776;SDS011;62088;50.240;2.696;2023-07-31T03:04:48;10.38;;;4.25;;
73776;SDS011;62088;50.240;2.696;2023-07-31T03:07:15;10.73;;;4.85;;
73776;SDS011;62088;50.240;2.696;2023-07-31T03:09:42;9.43;;;4.38;;
73776;SDS011;62088;50.240;2.696;2023-07-31T03:12:09;11.70;;;3.83;;
73776;SDS011;62088;50.240;2.696;2023-07-31T03:14:37;13.07;;;3.92;;
73776;SDS011;62088;50.240;2.696;2023-07-31T03:17:04;12.63;;;4.20;;
73776;SDS011;62088;50.240;2.696;2023-07-31T03:19:31;9.75;;;4.13;;
73776;SDS011;62088;50.240;2.696;2023-07-31T03:21:59;9.75;;;4.35;;
73776;SDS011;62088;50.240;2.696;2023-07-31T03:24:28;10.77;;;4.53;;
73776;SDS011;62088;50.240;2.696;2023-07-31T03:26:56;10.93;;;4.00;;
73776;SDS011;62088;50.240;2.696;2023-07-31T03:29:23;11.65;;;4.03;;
73776;SDS011;62088;50.240;2.696;2023-07-31T03:31:51;11.10;;;4.35;;
73776;SDS011;62088;50.240;2.696;2023-07-31T03:34:26;10.18;;;3.90;;
73776;SDS011;62088;50.240;2.696;2023-07-31T03:36:54;8.98;;;3.95;;
73776;SDS011;62088;50.240;2.696;2023-07-31T03:39:21;12.57;;;4.10;;
73776;SDS011;62088;50.240;2.696;2023-07-31T03:41:49;10.13;;;3.83;;
73776;SDS011;62088;50.240;2.696;2023-07-31T03:44:16;10.93;;;4.00;;
73776;SDS011;62088;50.240;2.696;2023-07-31T03:46:44;11.43;;;3.53;;
73776;SDS011;62088;50.240;2.696;2023-07-31T03:49:12;11.60;;;4.35;;
73776;SDS011;62088;50.240;2.696;2023-07-31T03:51:39;9.52;;;4.20;;
73776;SDS011;62088;50.240;2.696;2023-07-31T03:54:06;9.48;;;4.18;;
73776;SDS011;62088;50.240;2.696;2023-07-31T03:56:34;12.25;;;4.22;;
73776;SDS011;62088;50.240;2.696;2023-07-31T03:59:02;9.77;;;4.15;;
73776;SDS011;62088;50.240;2.696;2023-07-31T04:01:29;12.00;;;3.83;;
73776;SDS011;62088;50.240;2.696;2023-07-31T04:03:57;8.77;;;4.00;;
73776;SDS011;62088;50.240;2.696;2023-07-31T04:06:24;11.27;;;4.05;;
73776;SDS011;62088;50.240;2.696;2023-07-31T04:08:51;11.73;;;4.20;;
73776;SDS011;62088;50.240;2.696;2023-07-31T04:11:19;11.45;;;4.22;;
73776;SDS011;62088;50.240;2.696;2023-07-31T04:13:46;13.23;;;3.80;;
73776;SDS011;62088;50.240;2.696;2023-07-31T04:16:13;8.82;;;3.78;;
73776;SDS011;62088;50.240;2.696;2023-07-31T04:18:40;13.02;;;4.22;;
73776;SDS011;62088;50.240;2.696;2023-07-31T04:21:08;11.57;;;4.18;;
73776;SDS011;62088;50.240;2.696;2023-07-31T04:23:36;11.65;;;3.92;;
73776;SDS011;62088;50.240;2.696;2023-07-31T04:26:03;11.48;;;4.90;;
73776;SDS011;62088;50.240;2.696;2023-07-31T04:28:30;12.93;;;3.65;;
73776;SDS011;62088;50.240;2.696;2023-07-31T04:30:58;10.13;;;3.70;;
73776;SDS011;62088;50.240;2.696;2023-07-31T04:33:25;10.60;;;4.00;;
73776;SDS011;62088;50.240;2.696;2023-07-31T04:35:53;13.95;;;5.07;;
73776;SDS011;62088;50.240;2.696;2023-07-31T04:38:20;12.57;;;3.58;;
73776;SDS011;62088;50.240;2.696;2023-07-31T04:40:48;11.18;;;3.90;;
73776;SDS011;62088;50.240;2.696;2023-07-31T04:43:16;10.48;;;3.85;;
73776;SDS011;62088;50.240;2.696;2023-07-31T04:45:46;12.93;;;4.18;;
73776;SDS011;62088;50.240;2.696;2023-07-31T04:50:44;10.95;;;3.80;;
73776;SDS011;62088;50.240;2.696;2023-07-31T04:53:11;12.45;;;4.18;;
73776;SDS011;62088;50.240;2.696;2023-07-31T04:55:38;10.32;;;3.80;;
73776;SDS011;62088;50.240;2.696;2023-07-31T05:00:58;9.43;;;3.97;;
73776;SDS011;62088;50.240;2.696;2023-07-31T05:03:25;12.00;;;4.13;;
73776;SDS011;62088;50.240;2.696;2023-07-31T05:05:53;12.27;;;4.07;;
73776;SDS011;62088;50.240;2.696;2023-07-31T05:08:20;8.30;;;3.58;;
73776;SDS011;62088;50.240;2.696;2023-07-31T05:10:47;9.95;;;4.15;;
73776;SDS011;62088;50.240;2.696;2023-07-31T05:13:15;10.63;;;3.55;;
73776;SDS011;62088;50.240;2.696;2023-07-31T05:15:42;12.40;;;4.05;;
73776;SDS011;62088;50.240;2.696;2023-07-31T05:18:09;11.10;;;4.22;;
73776;SDS011;62088;50.240;2.696;2023-07-31T05:20:36;10.10;;;3.90;;
73776;SDS011;62088;50.240;2.696;2023-07-31T05:23:03;11.98;;;4.40;;
73776;SDS011;62088;50.240;2.696;2023-07-31T05:25:30;11.70;;;4.22;;
73776;SDS011;62088;50.240;2.696;2023-07-31T05:27:57;12.32;;;3.90;;
73776;SDS011;62088;50.240;2.696;2023-07-31T05:30:24;10.88;;;4.65;;
73776;SDS011;62088;50.240;2.696;2023-07-31T05:32:51;12.25;;;3.72;;
73776;SDS011;62088;50.240;2.696;2023-07-31T05:35:18;10.55;;;4.50;;
73776;SDS011;62088;50.240;2.696;2023-07-31T05:37:45;8.15;;;3.78;;
73776;SDS011;62088;50.240;2.696;2023-07-31T05:40:12;15.30;;;4.25;;
73776;SDS011;62088;50.240;2.696;2023-07-31T05:42:40;11.57;;;3.90;;
73776;SDS011;62088;50.240;2.696;2023-07-31T05:45:07;11.70;;;3.88;;
73776;SDS011;62088;50.240;2.696;2023-07-31T05:47:34;12.45;;;4.40;;
73776;SDS011;62088;50.240;2.696;2023-07-31T05:50:02;17.60;;;4.25;;
73776;SDS011;62088;50.240;2.696;2023-07-31T05:52:29;9.48;;;3.60;;
73776;SDS011;62088;50.240;2.696;2023-07-31T05:54:56;10.65;;;3.70;;
73776;SDS011;62088;50.240;2.696;2023-07-31T05:57:23;12.77;;;4.00;;
73776;SDS011;62088;50.240;2.696;2023-07-31T05:59:50;12.15;;;4.05;;
73776;SDS011;62088;50.240;2.696;2023-07-31T06:02:19;9.85;;;3.95;;
73776;SDS011;62088;50.240;2.696;2023-07-31T06:04:46;8.52;;;3.53;;
73776;SDS011;62088;50.240;2.696;2023-07-31T06:07:13;13.57;;;4.28;;
73776;SDS011;62088;50.240;2.696;2023-07-31T06:09:41;11.10;;;4.47;;
73776;SDS011;62088;50.240;2.696;2023-07-31T06:12:08;11.25;;;4.15;;
73776;SDS011;62088;50.240;2.696;2023-07-31T06:14:35;11.38;;;4.32;;
73776;SDS011;62088;50.240;2.696;2023-07-31T06:17:02;11.35;;;4.32;;
73776;SDS011;62088;50.240;2.696;2023-07-31T06:19:30;10.55;;;4.30;;
73776;SDS011;62088;50.240;2.696;2023-07-31T06:21:57;11.18;;;4.10;;
73776;SDS011;62088;50.240;2.696;2023-07-31T06:24:24;14.48;;;4.45;;
73776;SDS011;62088;50.240;2.696;2023-07-31T06:26:51;12.00;;;3.90;;
73776;SDS011;62088;50.240;2.696;2023-07-31T06:29:18;13.95;;;4.28;;
73776;SDS011;62088;50.240;2.696;2023-07-31T06:31:45;13.13;;;3.78;;
73776;SDS011;62088;50.240;2.696;2023-07-31T06:34:12;13.95;;;3.90;;
73776;SDS011;62088;50.240;2.696;2023-07-31T06:36:39;11.63;;;4.25;;
73776;SDS011;62088;50.240;2.696;2023-07-31T06:39:07;12.27;;;3.97;;
73776;SDS011;62088;50.240;2.696;2023-07-31T06:41:35;9.82;;;4.03;;
73776;SDS011;62088;50.240;2.696;2023-07-31T06:44:05;11.40;;;4.15;;
73776;SDS011;62088;50.240;2.696;2023-07-31T06:46:32;11.30;;;4.18;;
73776;SDS011;62088;50.240;2.696;2023-07-31T06:48:59;12.35;;;4.50;;
73776;SDS011;62088;50.240;2.696;2023-07-31T06:51:26;10.38;;;3.92;;
73776;SDS011;62088;50.240;2.696;2023-07-31T06:53:53;15.02;;;4.00;;
73776;SDS011;62088;50.240;2.696;2023-07-31T06:56:20;12.63;;;4.18;;
73776;SDS011;62088;50.240;2.696;2023-07-31T06:58:48;11.27;;;4.35;;
73776;SDS011;62088;50.240;2.696;2023-07-31T07:01:15;15.63;;;3.92;;
73776;SDS011;62088;50.240;2.696;2023-07-31T07:03:42;14.02;;;4.10;;
73776;SDS011;62088;50.240;2.696;2023-07-31T07:06:09;12.73;;;4.32;;
73776;SDS011;62088;50.240;2.696;2023-07-31T07:08:36;11.52;;;4.30;;
73776;SDS011;62088;50.240;2.696;2023-07-31T07:11:03;12.55;;;4.57;;
73776;SDS011;62088;50.240;2.696;2023-07-31T07:13:30;12.45;;;4.03;;
73776;SDS011;62088;50.240;2.696;2023-07-31T07:15:58;13.18;;;4.18;;
73776;SDS011;62088;50.240;2.696;2023-07-31T07:18:25;13.77;;;4.03;;
73776;SDS011;62088;50.240;2.696;2023-07-31T07:20:52;11.60;;;4.25;;
73776;SDS011;62088;50.240;2.696;2023-07-31T07:23:20;10.70;;;3.83;;
73776;SDS011;62088;50.240;2.696;2023-07-31T07:25:48;12.77;;;4.50;;
73776;SDS011;62088;50.240;2.696;2023-07-31T07:28:15;13.07;;;4.45;;
73776;SDS011;62088;50.240;2.696;2023-07-31T07:30:42;12.07;;;4.10;;
73776;SDS011;62088;50.240;2.696;2023-07-31T07:33:09;11.85;;;4.18;;
73776;SDS011;62088;50.240;2.696;2023-07-31T07:35:36;13.43;;;4.35;;
73776;SDS011;62088;50.240;2.696;2023-07-31T07:38:03;11.60;;;4.32;;
73776;SDS011;62088;50.240;2.696;2023-07-31T07:40:30;13.50;;;4.50;;
73776;SDS011;62088;50.240;2.696;2023-07-31T07:42:57;13.40;;;4.35;;
73776;SDS011;62088;50.240;2.696;2023-07-31T07:45:26;12.85;;;4.55;;
73776;SDS011;62088;50.240;2.696;2023-07-31T07:47:53;13.77;;;4.80;;
73776;SDS011;62088;50.240;2.696;2023-07-31T07:50:21;12.95;;;4.60;;
73776;SDS011;62088;50.240;2.696;2023-07-31T07:52:48;11.90;;;4.55;;
73776;SDS011;62088;50.240;2.696;2023-07-31T07:55:15;15.75;;;5.60;;
73776;SDS011;62088;50.240;2.696;2023-07-31T07:57:42;13.68;;;5.25;;
73776;SDS011;62088;50.240;2.696;2023-07-31T08:00:13;16.08;;;5.38;;
73776;SDS011;62088;50.240;2.696;2023-07-31T08:02:41;12.30;;;4.80;;
73776;SDS011;62088;50.240;2.696;2023-07-31T08:05:08;13.48;;;4.75;;
73776;SDS011;62088;50.240;2.696;2023-07-31T08:07:35;13.45;;;5.18;;
73776;SDS011;62088;50.240;2.696;2023-07-31T08:10:03;12.60;;;4.70;;
73776;SDS011;62088;50.240;2.696;2023-07-31T08:12:30;11.70;;;4.60;;
73776;SDS011;62088;50.240;2.696;2023-07-31T08:14:57;12.55;;;4.78;;
73776;SDS011;62088;50.240;2.696;2023-07-31T08:17:26;15.75;;;5.18;;
73776;SDS011;62088;50.240;2.696;2023-07-31T08:19:53;11.63;;;4.72;;
73776;SDS011;62088;50.240;2.696;2023-07-31T08:22:21;13.48;;;4.47;;
73776;SDS011;62088;50.240;2.696;2023-07-31T08:24:49;14.10;;;5.15;;
73776;SDS011;62088;50.240;2.696;2023-07-31T08:27:15;15.75;;;5.25;;
73776;SDS011;62088;50.240;2.696;2023-07-31T08:29:43;14.82;;;5.38;;
73776;SDS011;62088;50.240;2.696;2023-07-31T08:32:10;20.13;;;4.97;;
73776;SDS011;62088;50.240;2.696;2023-07-31T08:34:37;12.73;;;5.13;;
73776;SDS011;62088;50.240;2.696;2023-07-31T08:37:04;12.95;;;4.40;;
73776;SDS011;62088;50.240;2.696;2023-07-31T08:39:31;9.35;;;4.47;;
73776;SDS011;62088;50.240;2.696;2023-07-31T08:41:58;12.57;;;4.65;;
73776;SDS011;62088;50.240;2.696;2023-07-31T08:44:26;11.93;;;4.85;;
73776;SDS011;62088;50.240;2.696;2023-07-31T08:46:54;14.02;;;4.50;;
73776;SDS011;62088;50.240;2.696;2023-07-31T08:49:21;13.13;;;4.47;;
73776;SDS011;62088;50.240;2.696;2023-07-31T08:51:49;14.32;;;5.05;;
73776;SDS011;62088;50.240;2.696;2023-07-31T08:54:17;11.68;;;4.72;;
73776;SDS011;62088;50.240;2.696;2023-07-31T08:56:44;13.63;;;4.30;;
73776;SDS011;62088;50.240;2.696;2023-07-31T08:59:11;14.68;;;4.25;;
73776;SDS011;62088;50.240;2.696;2023-07-31T09:01:42;13.77;;;4.60;;
73776;SDS011;62088;50.240;2.696;2023-07-31T09:04:16;14.20;;;4.53;;
73776;SDS011;62088;50.240;2.696;2023-07-31T09:06:45;11.55;;;4.35;;
73776;SDS011;62088;50.240;2.696;2023-07-31T09:09:14;11.13;;;3.83;;
73776;SDS011;62088;50.240;2.696;2023-07-31T09:11:42;12.23;;;5.00;;
73776;SDS011;62088;50.240;2.696;2023-07-31T09:14:09;16.23;;;5.03;;
73776;SDS011;62088;50.240;2.696;2023-07-31T09:16:43;13.93;;;4.78;;
73776;SDS011;62088;50.240;2.696;2023-07-31T09:19:33;12.05;;;4.43;;
73776;SDS011;62088;50.240;2.696;2023-07-31T09:22:06;12.80;;;4.30;;
73776;SDS011;62088;50.240;2.696;2023-07-31T09:24:34;13.07;;;4.43;;
73776;SDS011;62088;50.240;2.696;2023-07-31T09:27:01;13.85;;;4.28;;
73776;SDS011;62088;50.240;2.696;2023-07-31T09:29:28;11.32;;;4.13;;
73776;SDS011;62088;50.240;2.696;2023-07-31T09:31:56;10.85;;;4.60;;
73776;SDS011;62088;50.240;2.696;2023-07-31T09:34:58;13.73;;;4.72;;
73776;SDS011;62088;50.240;2.696;2023-07-31T09:37:18;10.83;;;5.23;;
73776;SDS011;62088;50.240;2.696;2023-07-31T09:39:46;12.52;;;4.95;;
73776;SDS011;62088;50.240;2.696;2023-07-31T09:42:14;13.90;;;4.45;;
73776;SDS011;62088;50.240;2.696;2023-07-31T09:44:51;14.48;;;4.75;;
73776;SDS011;62088;50.240;2.696;2023-07-31T09:47:22;13.40;;;4.43;;
73776;SDS011;62088;50.240;2.696;2023-07-31T09:49:53;12.93;;;4.90;;
73776;SDS011;62088;50.240;2.696;2023-07-31T09:52:20;14.10;;;4.60;;
73776;SDS011;62088;50.240;2.696;2023-07-31T09:54:47;12.00;;;4.72;;
73776;SDS011;62088;50.240;2.696;2023-07-31T09:57:15;13.27;;;4.70;;
73776;SDS011;62088;50.240;2.696;2023-07-31T09:59:44;12.60;;;4.00;;
73776;SDS011;62088;50.240;2.696;2023-07-31T10:02:14;11.82;;;4.28;;
73776;SDS011;62088;50.240;2.696;2023-07-31T10:04:48;12.70;;;4.90;;
73776;SDS011;62088;50.240;2.696;2023-07-31T10:07:17;10.63;;;4.63;;
73776;SDS011;62088;50.240;2.696;2023-07-31T10:09:45;13.70;;;4.70;;
73776;SDS011;62088;50.240;2.696;2023-07-31T10:12:14;12.35;;;4.60;;
73776;SDS011;62088;50.240;2.696;2023-07-31T10:14:45;11.52;;;4.53;;
73776;SDS011;62088;50.240;2.696;2023-07-31T10:17:12;10.95;;;4.57;;
73776;SDS011;62088;50.240;2.696;2023-07-31T10:19:41;10.75;;;3.97;;
73776;SDS011;62088;50.240;2.696;2023-07-31T10:22:09;11.02;;;4.30;;
73776;SDS011;62088;50.240;2.696;2023-07-31T10:24:39;12.32;;;4.35;;
73776;SDS011;62088;50.240;2.696;2023-07-31T10:27:07;12.13;;;4.22;;
73776;SDS011;62088;50.240;2.696;2023-07-31T10:29:39;10.93;;;4.80;;
73776;SDS011;62088;50.240;2.696;2023-07-31T10:32:09;8.63;;;4.40;;
73776;SDS011;62088;50.240;2.696;2023-07-31T10:34:39;14.63;;;5.15;;
73776;SDS011;62088;50.240;2.696;2023-07-31T10:37:19;9.90;;;3.72;;
73776;SDS011;62088;50.240;2.696;2023-07-31T10:48:12;11.90;;;3.80;;
73776;SDS011;62088;50.240;2.696;2023-07-31T10:50:48;9.15;;;3.65;;
73776;SDS011;62088;50.240;2.696;2023-07-31T10:58:33;12.70;;;4.30;;
73776;SDS011;62088;50.240;2.696;2023-07-31T11:01:02;13.20;;;4.25;;
73776;SDS011;62088;50.240;2.696;2023-07-31T11:03:46;12.43;;;4.35;;
73776;SDS011;62088;50.240;2.696;2023-07-31T11:06:21;12.07;;;3.95;;
73776;SDS011;62088;50.240;2.696;2023-07-31T11:08:49;12.57;;;3.92;;
73776;SDS011;62088;50.240;2.696;2023-07-31T11:11:18;9.77;;;3.75;;
73776;SDS011;62088;50.240;2.696;2023-07-31T11:13:49;8.38;;;3.38;;
73776;SDS011;62088;50.240;2.696;2023-07-31T11:16:22;10.15;;;3.03;;
73776;SDS011;62088;50.240;2.696;2023-07-31T11:18:51;11.55;;;3.83;;
73776;SDS011;62088;50.240;2.696;2023-07-31T11:21:21;10.18;;;3.78;;
73776;SDS011;62088;50.240;2.696;2023-07-31T11:23:51;9.32;;;3.47;;
73776;SDS011;62088;50.240;2.696;2023-07-31T11:26:19;11.27;;;3.45;;
73776;SDS011;62088;50.240;2.696;2023-07-31T11:28:47;9.00;;;3.85;;
73776;SDS011;62088;50.240;2.696;2023-07-31T11:31:15;17.40;;;4.38;;
73776;SDS011;62088;50.240;2.696;2023-07-31T11:33:43;8.75;;;3.78;;
73776;SDS011;62088;50.240;2.696;2023-07-31T11:36:14;11.55;;;3.80;;
73776;SDS011;62088;50.240;2.696;2023-07-31T11:38:46;11.68;;;3.70;;
73776;SDS011;62088;50.240;2.696;2023-07-31T11:41:14;12.02;;;3.95;;
73776;SDS011;62088;50.240;2.696;2023-07-31T11:43:48;15.10;;;4.05;;
73776;SDS011;62088;50.240;2.696;2023-07-31T11:46:15;9.55;;;4.03;;
73776;SDS011;62088;50.240;2.696;2023-07-31T11:48:43;15.85;;;4.15;;
73776;SDS011;62088;50.240;2.696;2023-07-31T11:51:10;12.15;;;3.58;;
73776;SDS011;62088;50.240;2.696;2023-07-31T11:53:49;11.00;;;3.83;;
73776;SDS011;62088;50.240;2.696;2023-07-31T11:56:20;9.85;;;3.67;;
73776;SDS011;62088;50.240;2.696;2023-07-31T11:58:51;13.88;;;3.80;;
73776;SDS011;62088;50.240;2.696;2023-07-31T12:01:21;10.23;;;3.78;;
73776;SDS011;62088;50.240;2.696;2023-07-31T12:03:50;9.35;;;3.45;;
73776;SDS011;62088;50.240;2.696;2023-07-31T12:06:18;9.82;;;3.53;;
73776;SDS011;62088;50.240;2.696;2023-07-31T12:08:47;10.82;;;3.58;;
73776;SDS011;62088;50.240;2.696;2023-07-31T12:11:15;9.20;;;3.78;;
73776;SDS011;62088;50.240;2.696;2023-07-31T12:13:44;8.60;;;3.03;;
73776;SDS011;62088;50.240;2.696;2023-07-31T12:16:11;8.38;;;2.90;;
73776;SDS011;62088;50.240;2.696;2023-07-31T12:18:38;9.05;;;3.10;;
73776;SDS011;62088;50.240;2.696;2023-07-31T12:21:06;8.18;;;2.88;;
73776;SDS011;62088;50.240;2.696;2023-07-31T12:23:35;8.70;;;2.90;;
73776;SDS011;62088;50.240;2.696;2023-07-31T12:26:05;9.15;;;2.97;;
73776;SDS011;62088;50.240;2.696;2023-07-31T12:28:37;10.23;;;2.70;;
73776;SDS011;62088;50.240;2.696;2023-07-31T12:31:27;9.50;;;2.63;;
73776;SDS011;62088;50.240;2.696;2023-07-31T12:33:55;10.00;;;2.55;;
73776;SDS011;62088;50.240;2.696;2023-07-31T12:36:23;9.23;;;2.58;;
73776;SDS011;62088;50.240;2.696;2023-07-31T12:38:51;9.82;;;2.40;;
73776;SDS011;62088;50.240;2.696;2023-07-31T12:47:27;9.02;;;2.65;;
73776;SDS011;62088;50.240;2.696;2023-07-31T12:49:55;12.55;;;2.33;;
73776;SDS011;62088;50.240;2.696;2023-07-31T12:52:22;8.90;;;2.60;;
73776;SDS011;62088;50.240;2.696;2023-07-31T12:57:53;8.02;;;2.53;;
73776;SDS011;62088;50.240;2.696;2023-07-31T13:02:59;7.93;;;2.42;;
73776;SDS011;62088;50.240;2.696;2023-07-31T13:11:19;9.10;;;2.55;;
73776;SDS011;62088;50.240;2.696;2023-07-31T13:13:47;8.75;;;2.30;;
73776;SDS011;62088;50.240;2.696;2023-07-31T13:16:14;8.32;;;2.83;;
73776;SDS011;62088;50.240;2.696;2023-07-31T13:18:41;9.45;;;2.72;;
73776;SDS011;62088;50.240;2.696;2023-07-31T13:21:08;10.18;;;2.60;;
73776;SDS011;62088;50.240;2.696;2023-07-31T13:23:35;6.53;;;2.50;;
73776;SDS011;62088;50.240;2.696;2023-07-31T13:26:02;8.85;;;2.80;;
73776;SDS011;62088;50.240;2.696;2023-07-31T13:28:29;8.25;;;2.50;;
73776;SDS011;62088;50.240;2.696;2023-07-31T13:30:56;7.43;;;2.33;;
73776;SDS011;62088;50.240;2.696;2023-07-31T13:33:24;11.35;;;2.90;;
73776;SDS011;62088;50.240;2.696;2023-07-31T13:36:03;9.38;;;2.53;;
73776;SDS011;62088;50.240;2.696;2023-07-31T13:38:30;7.03;;;2.15;;
73776;SDS011;62088;50.240;2.696;2023-07-31T13:40:57;7.55;;;2.15;;
73776;SDS011;62088;50.240;2.696;2023-07-31T13:43:25;5.65;;;2.10;;
73776;SDS011;62088;50.240;2.696;2023-07-31T13:45:52;8.20;;;2.13;;
73776;SDS011;62088;50.240;2.696;2023-07-31T13:48:19;7.82;;;1.83;;
73776;SDS011;62088;50.240;2.696;2023-07-31T13:50:46;5.53;;;1.63;;
73776;SDS011;62088;50.240;2.696;2023-07-31T13:53:13;9.02;;;1.58;;
73776;SDS011;62088;50.240;2.696;2023-07-31T13:55:40;7.18;;;1.73;;
73776;SDS011;62088;50.240;2.696;2023-07-31T13:58:07;5.22;;;1.95;;
73776;SDS011;62088;50.240;2.696;2023-07-31T14:00:34;5.57;;;2.08;;
73776;SDS011;62088;50.240;2.696;2023-07-31T14:03:03;7.50;;;1.80;;
73776;SDS011;62088;50.240;2.696;2023-07-31T14:05:35;7.88;;;1.55;;
73776;SDS011;62088;50.240;2.696;2023-07-31T14:08:02;8.15;;;1.88;;
73776;SDS011;62088;50.240;2.696;2023-07-31T14:10:30;7.80;;;1.80;;
73776;SDS011;62088;50.240;2.696;2023-07-31T14:12:57;9.48;;;1.88;;
73776;SDS011;62088;50.240;2.696;2023-07-31T14:15:24;7.07;;;1.65;;
73776;SDS011;62088;50.240;2.696;2023-07-31T14:17:51;6.72;;;1.65;;
73776;SDS011;62088;50.240;2.696;2023-07-31T14:20:18;7.90;;;1.70;;
73776;SDS011;62088;50.240;2.696;2023-07-31T14:22:46;9.57;;;2.08;;
73776;SDS011;62088;50.240;2.696;2023-07-31T14:25:13;7.85;;;1.75;;
73776;SDS011;62088;50.240;2.696;2023-07-31T14:27:40;6.63;;;2.08;;
73776;SDS011;62088;50.240;2.696;2023-07-31T14:30:07;6.25;;;2.00;;
73776;SDS011;62088;50.240;2.696;2023-07-31T14:32:35;9.43;;;2.22;;
73776;SDS011;62088;50.240;2.696;2023-07-31T14:35:03;6.88;;;2.30;;
73776;SDS011;62088;50.240;2.696;2023-07-31T14:37:40;10.35;;;2.22;;
73776;SDS011;62088;50.240;2.696;2023-07-31T14:40:09;8.73;;;2.53;;
73776;SDS011;62088;50.240;2.696;2023-07-31T14:42:38;7.95;;;2.63;;
73776;SDS011;62088;50.240;2.696;2023-07-31T14:45:06;8.73;;;2.70;;
73776;SDS011;62088;50.240;2.696;2023-07-31T14:47:34;6.78;;;2.75;;
73776;SDS011;62088;50.240;2.696;2023-07-31T14:50:02;8.07;;;2.88;;
73776;SDS011;62088;50.240;2.696;2023-07-31T14:52:29;8.18;;;2.88;;
73776;SDS011;62088;50.240;2.696;2023-07-31T14:54:57;7.68;;;3.03;;
73776;SDS011;62088;50.240;2.696;2023-07-31T14:57:24;12.38;;;3.58;;
73776;SDS011;62088;50.240;2.696;2023-07-31T14:59:53;11.07;;;3.25;;
73776;SDS011;62088;50.240;2.696;2023-07-31T15:02:20;8.82;;;3.35;;
73776;SDS011;62088;50.240;2.696;2023-07-31T15:04:47;11.40;;;3.83;;
73776;SDS011;62088;50.240;2.696;2023-07-31T15:07:14;12.65;;;3.30;;
73776;SDS011;62088;50.240;2.696;2023-07-31T15:09:41;8.52;;;3.45;;
73776;SDS011;62088;50.240;2.696;2023-07-31T15:12:08;8.77;;;3.38;;
73776;SDS011;62088;50.240;2.696;2023-07-31T15:14:36;11.55;;;3.65;;
73776;SDS011;62088;50.240;2.696;2023-07-31T15:17:03;10.85;;;4.13;;
73776;SDS011;62088;50.240;2.696;2023-07-31T15:19:30;11.70;;;3.75;;
73776;SDS011;62088;50.240;2.696;2023-07-31T15:22:01;10.65;;;3.22;;
73776;SDS011;62088;50.240;2.696;2023-07-31T15:24:29;8.98;;;2.90;;
73776;SDS011;62088;50.240;2.696;2023-07-31T15:26:56;7.88;;;3.45;;
73776;SDS011;62088;50.240;2.696;2023-07-31T15:29:24;9.98;;;3.42;;
73776;SDS011;62088;50.240;2.696;2023-07-31T15:31:51;7.93;;;3.22;;
73776;SDS011;62088;50.240;2.696;2023-07-31T15:34:18;10.02;;;3.55;;
73776;SDS011;62088;50.240;2.696;2023-07-31T15:36:45;8.93;;;3.17;;
73776;SDS011;62088;50.240;2.696;2023-07-31T15:39:13;12.30;;;3.35;;
73776;SDS011;62088;50.240;2.696;2023-07-31T15:41:41;10.65;;;3.22;;
73776;SDS011;62088;50.240;2.696;2023-07-31T15:44:08;11.15;;;3.28;;
73776;SDS011;62088;50.240;2.696;2023-07-31T15:46:35;9.25;;;3.05;;
73776;SDS011;62088;50.240;2.696;2023-07-31T15:49:03;8.52;;;3.00;;
73776;SDS011;62088;50.240;2.696;2023-07-31T15:51:30;8.82;;;2.75;;
73776;SDS011;62088;50.240;2.696;2023-07-31T15:53:57;7.55;;;2.80;;
73776;SDS011;62088;50.240;2.696;2023-07-31T15:56:24;10.13;;;3.05;;
73776;SDS011;62088;50.240;2.696;2023-07-31T15:58:51;8.32;;;2.80;;
73776;SDS011;62088;50.240;2.696;2023-07-31T16:01:18;10.98;;;3.03;;